createdAt,value
2023-05-13T00:00:06.273Z,102427.03
2023-05-13T00:02:36.533Z,102450.09
2023-05-13T00:05:04.890Z,102450.94
2023-05-13T00:07:33.090Z,102453.66
2023-05-13T00:10:01.438Z,102450.09
2023-05-13T00:12:31.299Z,102463.41
2023-05-13T00:15:00.018Z,102453.66
2023-05-13T00:17:28.647Z,102459.88
2023-05-13T00:19:59.034Z,102449.25
2023-05-13T00:22:27.673Z,102457.19
2023-05-13T00:24:55.937Z,102465.16
2023-05-13T00:27:24.182Z,102459.84
2023-05-13T00:29:52.569Z,102468.72
2023-05-13T00:32:21.038Z,102458.13
2023-05-13T00:34:49.957Z,102465.19
2023-05-13T00:37:22.333Z,102459.88
2023-05-13T00:39:53.702Z,102457.19
2023-05-13T00:42:21.802Z,102470.50
2023-05-13T00:44:50.263Z,102467.84
2023-05-13T00:47:18.899Z,102454.56
2023-05-13T00:49:47.440Z,102439.53
2023-05-13T00:52:15.878Z,102467.81
2023-05-13T00:54:45.635Z,102474.03
2023-05-13T00:57:14.053Z,102484.66
2023-05-13T00:59:45.747Z,102475.81
2023-05-13T01:02:24.432Z,102482.03
2023-05-13T01:05:13.123Z,102484.66
2023-05-13T01:08:02.870Z,102497.03
2023-05-13T01:10:38.025Z,102488.22
2023-05-13T01:13:10.972Z,102482.00
2023-05-13T01:15:46.913Z,102486.44
2023-05-13T01:18:21.452Z,102481.09
2023-05-13T01:20:50.129Z,102464.28
2023-05-13T01:23:21.933Z,102500.59
2023-05-13T01:25:50.645Z,102505.88
2023-05-13T01:28:19.112Z,102505.88
2023-05-13T01:30:49.326Z,102502.34
2023-05-13T01:33:19.477Z,102500.59
2023-05-13T01:35:49.666Z,102500.59
2023-05-13T01:38:21.969Z,102501.47
2023-05-13T01:40:50.352Z,102491.72
2023-05-13T01:43:18.692Z,102507.66
2023-05-13T01:45:47.041Z,102500.53
2023-05-13T01:48:15.655Z,102507.59
2023-05-13T01:50:43.952Z,102504.94
2023-05-13T01:53:15.511Z,102504.06
2023-05-13T01:55:45.468Z,102507.59
2023-05-13T01:58:14.978Z,102495.25
2023-05-13T02:00:45.661Z,102496.09
2023-05-13T02:03:14.030Z,102489.00
2023-05-13T02:05:42.347Z,102500.53
2023-05-13T02:08:10.616Z,102509.38
2023-05-13T02:10:38.811Z,102510.25
2023-05-13T02:13:08.476Z,102507.59
2023-05-13T02:15:37.066Z,102502.31
2023-05-13T02:18:05.689Z,102505.81
2023-05-13T02:20:34.054Z,102495.19
2023-05-13T02:23:02.816Z,102496.97
2023-05-13T02:25:31.227Z,102499.56
2023-05-13T02:27:59.969Z,102466.78
2023-05-13T02:30:29.972Z,102507.53
2023-05-13T02:32:58.997Z,102459.59
2023-05-13T02:35:30.455Z,102502.09
2023-05-13T02:37:59.862Z,102496.81
2023-05-13T02:40:28.803Z,102496.81
2023-05-13T02:42:57.521Z,102495.03
2023-05-13T02:45:26.400Z,102417.06
2023-05-13T02:47:56.386Z,102481.63
2023-05-13T02:50:25.158Z,102475.41
2023-05-13T02:52:53.386Z,102485.97
2023-05-13T02:55:21.652Z,102455.88
2023-05-13T02:57:49.930Z,102487.81
2023-05-13T03:00:22.170Z,102448.94
2023-05-13T03:02:50.722Z,102477.28
2023-05-13T03:05:20.402Z,102482.72
2023-05-13T03:07:50.957Z,102484.56
2023-05-13T03:10:19.396Z,102481.00
2023-05-13T03:12:47.949Z,102487.19
2023-05-13T03:15:17.934Z,102468.50
2023-05-13T03:17:46.520Z,102478.28
2023-05-13T03:20:14.971Z,102486.28
2023-05-13T03:22:44.849Z,102468.47
2023-05-13T03:25:13.196Z,102480.84
2023-05-13T03:27:41.892Z,102487.09
2023-05-13T03:30:11.347Z,102438.31
2023-05-13T03:32:44.794Z,102482.63
2023-05-13T03:35:13.200Z,102461.41
2023-05-13T03:37:42.005Z,102475.63
2023-05-13T03:40:13.009Z,102479.22
2023-05-13T03:42:41.579Z,102477.44
2023-05-13T03:45:12.106Z,102477.44
2023-05-13T03:47:41.333Z,102479.19
2023-05-13T03:50:11.585Z,102474.78
2023-05-13T03:52:40.272Z,102466.84
2023-05-13T03:55:09.736Z,102464.16
2023-05-13T03:57:41.761Z,102436.75
2023-05-13T04:00:11.393Z,102466.88
2023-05-13T04:02:39.592Z,102476.63
2023-05-13T04:05:09.860Z,102440.34
2023-05-13T04:07:38.574Z,102461.63
2023-05-13T04:10:07.756Z,102465.19
2023-05-13T04:12:35.920Z,102466.94
2023-05-13T04:15:06.907Z,102447.47
2023-05-13T04:17:35.082Z,102458.06
2023-05-13T04:20:03.450Z,102468.69
2023-05-13T04:22:32.440Z,102470.50
2023-05-13T04:25:01.638Z,102474.00
2023-05-13T04:27:30.163Z,102476.63
2023-05-13T04:29:58.650Z,102468.69
2023-05-13T04:32:28.262Z,102473.13
2023-05-13T04:34:56.497Z,102479.31
2023-05-13T04:37:25.421Z,102481.06
2023-05-13T04:39:53.914Z,102482.84
2023-05-13T04:42:22.009Z,102484.66
2023-05-13T04:44:50.819Z,102486.44
2023-05-13T04:47:20.168Z,102482.00
2023-05-13T04:49:49.947Z,102489.09
2023-05-13T04:52:19.328Z,102488.19
2023-05-13T04:54:48.694Z,102493.50
2023-05-13T04:57:17.203Z,102490.88
2023-05-13T04:59:46.372Z,102486.44
2023-05-13T05:02:18.462Z,102475.81
2023-05-13T05:04:49.355Z,102494.44
2023-05-13T05:07:19.345Z,102493.56
2023-05-13T05:09:47.985Z,102503.28
2023-05-13T05:12:16.309Z,102501.50
2023-05-13T05:14:44.959Z,102500.56
2023-05-13T05:17:13.191Z,102499.75
2023-05-13T05:19:41.695Z,102500.59
2023-05-13T05:22:10.193Z,102502.34
2023-05-13T05:24:40.367Z,102497.06
2023-05-13T05:27:08.708Z,102498.78
2023-05-13T05:29:39.254Z,102494.31
2023-05-13T05:32:08.681Z,102497.78
2023-05-13T05:34:37.703Z,102489.81
2023-05-13T05:37:06.421Z,102489.72
2023-05-13T05:39:35.518Z,102490.66
2023-05-13T05:42:05.462Z,102503.91
2023-05-13T05:44:33.603Z,102485.31
2023-05-13T05:47:05.108Z,102506.63
2023-05-13T05:49:33.768Z,102508.34
2023-05-13T05:52:05.452Z,102509.16
2023-05-13T05:54:33.875Z,102494.91
2023-05-13T05:57:04.770Z,102494.91
2023-05-13T05:59:34.932Z,102493.97
2023-05-13T06:02:03.403Z,102494.81
2023-05-13T06:04:31.798Z,102509.84
2023-05-13T06:07:05.587Z,102501.84
2023-05-13T06:09:34.054Z,102484.19
2023-05-13T06:12:05.321Z,102489.41
2023-05-13T06:14:34.947Z,102499.88
2023-05-13T06:17:03.275Z,102503.34
2023-05-13T06:19:34.668Z,102514.03
2023-05-13T06:22:04.216Z,102508.72
2023-05-13T06:24:33.364Z,102502.47
2023-05-13T06:27:04.865Z,102487.38
2023-05-13T06:29:34.772Z,102483.88
2023-05-13T06:32:03.007Z,102472.28
2023-05-13T06:34:34.001Z,102481.84
2023-05-13T06:37:04.631Z,102503.91
2023-05-13T06:39:33.173Z,102453.59
2023-05-13T06:42:01.867Z,102508.44
2023-05-13T06:44:30.246Z,102510.28
2023-05-13T06:47:00.429Z,102503.00
2023-05-13T06:49:28.767Z,102500.28
2023-05-13T06:51:57.330Z,102508.94
2023-05-13T06:54:26.671Z,102500.91
2023-05-13T06:56:55.283Z,102477.94
2023-05-13T06:59:25.158Z,102498.09
2023-05-13T07:01:56.568Z,102508.88
2023-05-13T07:04:26.759Z,102492.06
2023-05-13T07:06:55.511Z,102495.41
2023-05-13T07:09:24.551Z,102520.25
2023-05-13T07:11:54.266Z,102517.53
2023-05-13T07:14:22.560Z,102500.53
2023-05-13T07:16:51.115Z,102504.88
2023-05-13T07:19:19.613Z,102503.13
2023-05-13T07:21:49.315Z,102473.97
2023-05-13T07:24:17.676Z,102500.25
2023-05-13T07:26:54.050Z,102468.44
2023-05-13T07:29:22.624Z,102492.19
2023-05-13T07:31:51.268Z,102484.16
2023-05-13T07:34:20.118Z,102479.50
2023-05-13T07:36:49.839Z,102499.88
2023-05-13T07:39:18.612Z,102495.25
2023-05-13T07:41:47.556Z,102478.38
2023-05-13T07:44:15.843Z,102495.88
2023-05-13T07:46:44.892Z,102501.00
2023-05-13T07:49:12.998Z,102503.59
2023-05-13T07:51:41.472Z,102477.81
2023-05-13T07:54:11.819Z,102477.81
2023-05-13T07:56:40.612Z,102486.88
2023-05-13T07:59:08.728Z,102466.75
2023-05-13T08:01:37.480Z,102467.88
2023-05-13T08:04:06.538Z,102472.38
2023-05-13T08:06:34.984Z,102477.56
2023-05-13T08:09:03.736Z,102479.84
2023-05-13T08:11:33.348Z,102479.94
2023-05-13T08:14:01.642Z,102481.63
2023-05-13T08:16:30.121Z,102476.31
2023-05-13T08:18:58.793Z,102469.88
2023-05-13T08:21:27.374Z,102464.97
2023-05-13T08:23:55.621Z,102461.88
2023-05-13T08:26:23.821Z,102467.06
2023-05-13T08:28:54.942Z,102476.84
2023-05-13T08:31:25.178Z,102464.75
2023-05-13T08:33:53.546Z,102469.84
2023-05-13T08:36:23.244Z,102473.13
2023-05-13T08:38:51.367Z,102476.59
2023-05-13T08:41:21.987Z,102482.47
2023-05-13T08:43:53.459Z,102478.72
2023-05-13T08:46:25.447Z,102479.88
2023-05-13T08:48:54.488Z,102475.75
2023-05-13T08:51:22.930Z,102472.97
2023-05-13T08:53:53.039Z,102470.91
2023-05-13T08:56:22.416Z,102468.19
2023-05-13T08:58:52.610Z,102475.63
2023-05-13T09:01:24.451Z,102469.22
2023-05-13T09:03:59.991Z,102473.47
2023-05-13T09:06:28.935Z,102482.78
2023-05-13T09:08:57.213Z,102472.63
2023-05-13T09:11:26.530Z,102471.00
2023-05-13T09:14:07.385Z,102472.53
2023-05-13T09:16:36.584Z,102466.31
2023-05-13T09:19:06.073Z,102467.09
2023-05-13T09:21:36.639Z,102462.66
2023-05-13T09:24:11.467Z,102451.34
2023-05-13T09:26:40.169Z,102461.94
2023-05-13T09:29:18.593Z,102470.69
2023-05-13T09:31:48.991Z,102461.78
2023-05-13T09:34:25.606Z,102453.59
2023-05-13T09:36:57.892Z,102457.97
2023-05-13T09:39:26.127Z,102459.09
2023-05-13T09:41:54.662Z,102435.78
2023-05-13T09:44:24.886Z,102453.88
2023-05-13T09:46:56.571Z,102459.28
2023-05-13T09:49:25.487Z,102422.97
2023-05-13T09:51:56.759Z,102446.28
2023-05-13T09:54:25.670Z,102449.19
2023-05-13T09:57:03.781Z,102445.91
2023-05-13T09:59:35.027Z,102439.50
2023-05-13T10:02:06.850Z,102437.94
2023-05-13T10:04:35.891Z,102443.47
2023-05-13T10:07:05.620Z,102444.41
2023-05-13T10:09:38.270Z,102443.66
2023-05-13T10:12:09.155Z,102446.56
2023-05-13T10:14:39.389Z,102434.19
2023-05-13T10:17:08.006Z,102425.84
2023-05-13T10:19:36.767Z,102433.66
2023-05-13T10:22:06.367Z,102423.50
2023-05-13T10:24:38.500Z,102412.97
2023-05-13T10:27:08.310Z,102409.81
2023-05-13T10:29:40.660Z,102436.44
2023-05-13T10:32:11.279Z,102439.13
2023-05-13T10:34:41.892Z,102433.09
2023-05-13T10:37:35.988Z,102434.94
2023-05-13T10:40:33.303Z,102438.66
2023-05-13T10:43:13.343Z,102441.31
2023-05-13T10:45:46.444Z,102426.75
2023-05-13T10:48:17.938Z,102411.75
2023-05-13T10:50:54.204Z,102422.03
2023-05-13T10:53:25.661Z,102428.63
2023-05-13T10:55:55.673Z,102402.91
2023-05-13T10:58:30.323Z,102424.28
2023-05-13T11:01:16.107Z,102426.34
2023-05-13T11:03:53.548Z,102422.25
2023-05-13T11:06:23.919Z,102418.34
2023-05-13T11:08:56.339Z,102403.47
2023-05-13T11:11:35.423Z,102417.22
2023-05-13T11:14:17.784Z,102425.75
2023-05-13T11:17:11.061Z,102416.66
2023-05-13T11:19:48.388Z,102334.38
2023-05-13T11:22:21.856Z,102418.78
2023-05-13T11:25:11.764Z,102355.63
2023-05-13T11:27:45.560Z,102344.19
2023-05-13T11:30:25.021Z,102348.97
2023-05-13T11:33:01.258Z,102332.66
2023-05-13T11:35:32.772Z,102376.28
2023-05-13T11:38:08.881Z,102359.81
2023-05-13T11:40:39.543Z,102415.66
2023-05-13T11:43:34.782Z,102400.75
2023-05-13T11:46:05.613Z,102411.00
2023-05-13T11:48:41.180Z,102361.19
2023-05-13T11:51:14.604Z,102410.69
2023-05-13T11:53:43.476Z,102413.88
2023-05-13T11:56:15.446Z,102406.50
2023-05-13T11:58:44.301Z,102377.09
2023-05-13T12:01:17.120Z,102362.72
2023-05-13T12:03:48.185Z,102381.38
2023-05-13T12:06:23.827Z,102377.09
2023-05-13T12:09:07.605Z,102405.25
2023-05-13T12:12:09.373Z,102412.47
2023-05-13T12:15:13.599Z,102407.50
2023-05-13T12:17:55.797Z,102411.91
2023-05-13T12:20:27.680Z,102398.94
2023-05-13T12:23:04.982Z,102378.72
2023-05-13T12:25:38.639Z,102386.31
2023-05-13T12:28:12.382Z,102394.47
2023-05-13T12:30:44.649Z,102394.00
2023-05-13T12:33:17.060Z,102406.31
2023-05-13T12:35:50.535Z,102402.44
2023-05-13T12:38:20.505Z,102392.13
2023-05-13T12:40:49.861Z,102390.03
2023-05-13T12:43:19.973Z,102387.41
2023-05-13T12:45:54.284Z,102374.97
2023-05-13T12:48:26.014Z,102361.59
2023-05-13T12:50:56.673Z,102373.13
2023-05-13T12:53:28.963Z,102391.16
2023-05-13T12:55:58.473Z,102385.66
2023-05-13T12:58:26.743Z,102380.56
2023-05-13T13:00:55.475Z,102376.75
2023-05-13T13:03:27.199Z,102371.09
2023-05-13T13:05:58.573Z,102379.38
2023-05-13T13:08:28.808Z,102363.34
2023-05-13T13:11:00.118Z,102373.25
2023-05-13T13:13:28.819Z,102368.97
2023-05-13T13:15:57.301Z,102383.88
2023-05-13T13:18:25.917Z,102377.13
2023-05-13T13:20:55.511Z,102384.22
2023-05-13T13:23:25.313Z,102383.38
2023-05-13T13:25:53.670Z,102388.41
2023-05-13T13:28:22.233Z,102378.91
2023-05-13T13:30:50.350Z,102394.72
2023-05-13T13:33:18.947Z,102387.97
2023-05-13T13:35:49.312Z,102390.03
2023-05-13T13:38:18.255Z,102388.84
2023-05-13T13:40:48.646Z,102376.31
2023-05-13T13:43:16.854Z,102388.16
2023-05-13T13:45:45.673Z,102394.69
2023-05-13T13:48:14.849Z,102371.16
2023-05-13T13:50:44.350Z,102395.53
2023-05-13T13:53:13.551Z,102393.97
2023-05-13T13:55:42.077Z,102400.34
2023-05-13T13:58:11.691Z,102375.16
2023-05-13T14:00:40.420Z,102379.59
2023-05-13T14:03:11.785Z,102397.22
2023-05-13T14:05:40.248Z,102357.47
2023-05-13T14:08:22.142Z,102382.53
2023-05-13T14:10:50.385Z,102388.03
2023-05-13T14:13:20.132Z,102391.56
2023-05-13T14:15:48.925Z,102373.47
2023-05-13T14:18:17.603Z,102376.63
2023-05-13T14:20:49.885Z,102376.72
2023-05-13T14:23:19.502Z,102358.91
2023-05-13T14:25:50.741Z,102365.66
2023-05-13T14:28:24.446Z,102370.53
2023-05-13T14:30:53.319Z,102372.13
2023-05-13T14:33:21.524Z,102366.38
2023-05-13T14:35:49.965Z,102365.63
2023-05-13T14:38:20.519Z,102351.72
2023-05-13T14:40:49.850Z,102365.66
2023-05-13T14:43:19.519Z,102355.19
2023-05-13T14:45:48.386Z,102367.72
2023-05-13T14:48:17.366Z,102355.91
2023-05-13T14:50:46.671Z,102351.59
2023-05-13T14:53:15.109Z,102355.44
2023-05-13T14:55:43.559Z,102331.41
2023-05-13T14:58:12.924Z,102347.28
2023-05-13T15:00:44.351Z,102324.56
2023-05-13T15:03:13.333Z,102356.88
2023-05-13T15:05:44.102Z,102350.69
2023-05-13T15:08:12.972Z,102356.75
2023-05-13T15:10:41.171Z,102346.22
2023-05-13T15:13:13.047Z,102345.09
2023-05-13T15:15:42.730Z,102353.75
2023-05-13T15:18:11.438Z,102336.03
2023-05-13T15:20:39.932Z,102357.25
2023-05-13T15:23:08.281Z,102348.28
2023-05-13T15:25:37.151Z,102349.06
2023-05-13T15:28:05.668Z,102342.78
2023-05-13T15:30:36.680Z,102353.22
2023-05-13T15:33:06.896Z,102347.41
2023-05-13T15:35:36.124Z,102342.81
2023-05-13T15:38:04.917Z,102347.53
2023-05-13T15:40:35.127Z,102320.84
2023-05-13T15:43:04.123Z,102309.69
2023-05-13T15:45:34.972Z,102331.50
2023-05-13T15:48:07.561Z,102323.13
2023-05-13T15:50:35.920Z,102317.22
2023-05-13T15:53:06.404Z,102332.00
2023-05-13T15:55:37.354Z,102327.41
2023-05-13T15:58:05.854Z,102330.09
2023-05-13T16:00:34.748Z,102338.19
2023-05-13T16:03:03.971Z,102318.69
2023-05-13T16:08:16.148Z,102334.34
2023-05-13T16:10:44.772Z,102327.16
2023-05-13T16:13:13.019Z,102315.88
2023-05-13T16:15:41.348Z,102300.59
2023-05-13T16:18:09.610Z,102319.31
2023-05-13T16:20:41.169Z,102329.13
2023-05-13T16:23:10.034Z,102314.00
2023-05-13T16:25:40.022Z,102292.34
2023-05-13T16:28:09.107Z,102304.38
2023-05-13T16:30:39.747Z,102314.00
2023-05-13T16:33:09.633Z,102312.97
2023-05-13T16:35:39.643Z,102310.16
2023-05-13T16:38:08.629Z,102318.09
2023-05-13T16:40:37.204Z,102317.91
2023-05-13T16:43:05.386Z,102315.34
2023-05-13T16:45:34.668Z,102317.22
2023-05-13T16:48:03.034Z,102310.72
2023-05-13T16:50:31.493Z,102315.88
2023-05-13T16:53:01.390Z,102315.66
2023-05-13T16:55:30.075Z,102314.06
2023-05-13T16:57:58.694Z,102316.09
2023-05-13T17:00:27.500Z,102315.28
2023-05-13T17:02:56.292Z,102307.91
2023-05-13T17:05:24.701Z,102308.91
2023-05-13T17:07:52.867Z,102313.50
2023-05-13T17:10:22.933Z,102290.00
2023-05-13T17:12:51.404Z,102282.28
2023-05-13T17:15:19.882Z,102303.81
2023-05-13T17:17:54.004Z,102305.34
2023-05-13T17:20:23.295Z,102305.69
2023-05-13T17:22:51.965Z,102307.16
2023-05-13T17:25:20.338Z,102288.78
2023-05-13T17:27:52.412Z,102299.97
2023-05-13T17:30:20.735Z,102300.97
2023-05-13T17:32:51.142Z,102301.09
2023-05-13T17:35:19.828Z,102275.84
2023-05-13T17:37:48.336Z,102303.94
2023-05-13T17:40:16.712Z,102304.81
2023-05-13T17:42:45.026Z,102299.72
2023-05-13T17:45:14.974Z,102297.81
2023-05-13T17:47:43.364Z,102301.19
2023-05-13T17:50:14.524Z,102293.47
2023-05-13T17:52:43.145Z,102289.66
2023-05-13T17:55:11.846Z,102301.94
2023-05-13T17:57:40.840Z,102294.00
2023-05-13T18:00:10.224Z,102284.84
2023-05-13T18:02:40.536Z,102295.41
2023-05-13T18:05:10.301Z,102298.25
2023-05-13T18:07:38.686Z,102270.03
2023-05-13T18:10:08.480Z,102260.50
2023-05-13T18:12:36.859Z,102298.25
2023-05-13T18:15:05.579Z,102296.47
2023-05-13T18:17:33.981Z,102296.69
2023-05-13T18:20:03.722Z,102294.50
2023-05-13T18:22:35.072Z,102290.25
2023-05-13T18:25:03.676Z,102290.34
2023-05-13T18:27:32.494Z,102292.06
2023-05-13T18:30:03.503Z,102283.28
2023-05-13T18:32:31.840Z,102311.59
2023-05-13T18:35:00.066Z,102299.13
2023-05-13T18:37:29.969Z,102294.53
2023-05-13T18:39:58.856Z,102309.75
2023-05-13T18:42:30.314Z,102298.44
2023-05-13T18:44:58.529Z,102301.84
2023-05-13T18:47:26.725Z,102303.59
2023-05-13T18:49:55.220Z,102301.44
2023-05-13T18:52:24.094Z,102307.47
2023-05-13T18:54:54.061Z,102299.47
2023-05-13T18:57:24.042Z,102303.97
2023-05-13T18:59:52.998Z,102305.91
2023-05-13T19:02:23.513Z,102315.97
2023-05-13T19:04:52.112Z,102310.00
2023-05-13T19:07:21.015Z,102319.03
2023-05-13T19:09:54.166Z,102320.97
2023-05-13T19:12:24.651Z,102317.63
2023-05-13T19:14:52.901Z,102321.47
2023-05-13T19:17:21.558Z,102304.31
2023-05-13T19:19:50.442Z,102299.03
2023-05-13T19:22:23.964Z,102321.16
2023-05-13T19:24:53.933Z,102324.06
2023-05-13T19:27:22.935Z,102327.19
2023-05-13T19:29:51.245Z,102317.59
2023-05-13T19:32:20.866Z,102324.03
2023-05-13T19:34:49.129Z,102325.91
2023-05-13T19:37:17.402Z,102318.94
2023-05-13T19:39:46.277Z,102319.78
2023-05-13T19:42:17.390Z,102323.22
2023-05-13T19:44:46.500Z,102323.22
2023-05-13T19:47:15.241Z,102315.75
2023-05-13T19:49:45.830Z,102316.03
2023-05-13T19:52:20.227Z,102256.19
2023-05-13T19:54:51.840Z,102321.84
2023-05-13T19:57:22.282Z,102323.03
2023-05-13T19:59:51.374Z,102325.66
2023-05-13T20:02:22.925Z,102327.50
2023-05-13T20:05:00.114Z,102333.22
2023-05-13T20:07:47.867Z,102336.97
2023-05-13T20:10:40.835Z,102313.22
2023-05-13T20:13:13.003Z,102308.94
2023-05-13T20:15:41.819Z,102330.97
2023-05-13T20:18:13.106Z,102312.03
2023-05-13T20:20:42.764Z,102333.03
2023-05-13T20:23:19.465Z,102331.69
2023-05-13T20:25:48.606Z,102327.16
2023-05-13T20:28:19.255Z,102338.66
2023-05-13T20:30:48.518Z,102339.94
2023-05-13T20:33:18.502Z,102338.97
2023-05-13T20:35:49.890Z,102310.81
2023-05-13T20:38:21.950Z,102322.13
2023-05-13T20:40:52.495Z,102315.06
2023-05-13T20:43:25.856Z,102329.31
2023-05-13T20:45:56.506Z,102331.00
2023-05-13T20:48:27.110Z,102329.38
2023-05-13T20:51:00.568Z,102345.22
2023-05-13T20:53:29.103Z,102339.72
2023-05-13T20:55:58.175Z,102347.47
2023-05-13T20:58:29.944Z,102341.03
2023-05-13T21:00:58.615Z,102332.25
2023-05-13T21:03:28.828Z,102331.78
2023-05-13T21:06:02.167Z,102306.28
2023-05-13T21:08:36.970Z,102338.50
2023-05-13T21:11:24.470Z,102311.50
2023-05-13T21:14:00.409Z,102307.13
2023-05-13T21:16:47.995Z,102309.50
2023-05-13T21:19:21.681Z,102328.22
2023-05-13T21:21:56.128Z,102338.81
2023-05-13T21:27:43.655Z,102325.28
2023-05-13T21:30:14.809Z,102336.09
2023-05-13T21:32:43.303Z,102321.41
2023-05-13T21:35:11.697Z,102307.97
2023-05-13T21:37:40.890Z,102340.53
2023-05-13T21:40:11.251Z,102316.84
2023-05-13T21:42:42.511Z,102340.75
2023-05-13T21:45:14.613Z,102339.75
2023-05-13T21:47:48.026Z,102339.56
2023-05-13T21:50:18.605Z,102316.53
2023-05-13T21:52:55.869Z,102335.78
2023-05-13T21:55:26.691Z,102275.69
2023-05-13T22:01:01.861Z,102310.50
2023-05-13T22:03:30.487Z,102329.16
2023-05-13T22:06:07.821Z,102325.22
2023-05-13T22:08:39.057Z,102341.38
2023-05-13T22:11:12.990Z,102347.59
2023-05-13T22:13:50.326Z,102353.19
2023-05-13T22:16:20.144Z,102347.94
2023-05-13T22:19:09.015Z,102329.69
2023-05-13T22:21:37.384Z,102318.06
2023-05-13T22:24:06.844Z,102340.06
2023-05-13T22:26:35.182Z,102330.41
2023-05-13T22:29:06.492Z,102340.00
2023-05-13T22:31:36.956Z,102340.84
2023-05-13T22:34:05.769Z,102341.66
2023-05-13T22:36:43.112Z,102342.31
2023-05-13T22:39:17.215Z,102347.78
2023-05-13T22:41:46.279Z,102317.75
2023-05-13T22:44:15.040Z,102321.22
2023-05-13T22:46:47.654Z,102322.63
2023-05-13T22:49:21.919Z,102329.69
2023-05-13T22:51:52.205Z,102291.16
2023-05-13T22:54:26.340Z,102343.63
2023-05-13T22:56:54.554Z,102333.91
2023-05-13T22:59:23.229Z,102335.69
2023-05-13T23:01:53.009Z,102324.13
2023-05-13T23:04:22.528Z,102339.22
2023-05-13T23:06:51.585Z,102325.84
2023-05-13T23:09:22.717Z,102319.72
2023-05-13T23:11:51.580Z,102332.09
2023-05-13T23:14:22.923Z,102338.28
2023-05-13T23:16:52.734Z,102333.09
2023-05-13T23:19:21.223Z,102327.53
2023-05-13T23:21:49.697Z,102324.88
2023-05-13T23:24:17.911Z,102337.00
2023-05-13T23:26:47.498Z,102327.78
2023-05-13T23:29:15.910Z,102329.56
2023-05-13T23:31:44.238Z,102333.09
2023-05-13T23:34:17.116Z,102329.69
2023-05-13T23:36:45.294Z,102337.69
2023-05-13T23:39:13.555Z,102333.03
2023-05-13T23:41:42.145Z,102334.56
2023-05-13T23:44:12.010Z,102332.78
2023-05-13T23:46:40.346Z,102330.91
2023-05-13T23:49:08.688Z,102330.91
2023-05-13T23:51:38.439Z,102329.06
2023-05-13T23:54:08.259Z,102318.34
2023-05-13T23:56:36.714Z,102324.03
2023-05-13T23:59:04.884Z,102320.25
